Terminal Aerodrome Forecast
Issued by NWS Green Bay, WI

Home | Current Version | Previous Version | Graphics & Text | Print | Product List | Glossary On
Versions: 1 2 3 4 5 6 7 8 9 10 11 12 13 14 15 16 17 18 19 20
000
FTUS43 KGRB 171013 AAB
TAFGRB
TAF AMD
KGRB 171013Z 1710/1806 20006KT P6SM SCT040 OVC090
      TEMPO 1711/1714 3SM -TSRA BR BKN025CB
     FM171400 26008KT P6SM BKN025
     FM171800 27011KT P6SM BKN040
     FM172100 29010KT P6SM SCT040
     FM180100 30004KT P6SM SKC=

USA.gov is the U.S. government's official web portal to all federal, state and local government web resources and services.